Bunn, NC (27508)

11:28 PM EST on February 10, 2016 (GMT -0500)
Lake Royale | | Change Station
CLOSE
Current Station
Personal Weather Station
Location: Louisburg, NC
Elevation: 210 ft
Nearby Weather Stations

Elev 210 ft 35.96 °N, 78.20 °W | Updated 26 seconds ago

Clear
Clear
27.9 °F
Feels Like 28 °F
N
0.4
Wind Variable Wind from WNW
Gusts 2.5 mph

Today
High -- | Low -- °F
--% Chance of Precip.
Yesterday
High -- | Low -- °F
Precip. -- in
Pressure 30.07 in
Visibility 10.0 miles
Clouds Clear
Windchill 28 °F
Dew Point 4 °F
Humidity 36%
Rainfall 0.00 in
Snow Depth Not available.
7:05 AM 5:48 PM
Waxing Crescent, 9% visible
METAR KLHZ 110415Z AUTO 31003KT 10SM CLR M03/M13 A3007 RMK AO2
Pressure 30.07 in
Visibility 10.0 miles
Clouds Clear
Windchill 28 °F
Dew Point 4 °F
Humidity 36%
Rainfall 0.00 in
Snow Depth Not available.
7:05 AM 5:48 PM
Waxing Crescent, 9% visible
METAR KLHZ 110415Z AUTO 31003KT 10SM CLR M03/M13 A3007 RMK AO2

10-Day Weather Forecast

Almanac

Astronomy

Feb. 10, 2016 Rise Set
Actual Time
Civil Twilight
Nautical Twilight
Astronomical Twilight
Moon
Length of Visible Light
Length of Day
Tomorrow will be .
, % of the Moon is Illuminated

Today's Extremes

State Highs State Lows

Community

WunderPhotos

Upload Photos

1,892,012 photos uploaded!

WunderBlog® & News

Nearby

Air Quality

  Air Quality AQ Index Pollutant
Not available.

Snow Depth

Station Depth Elevation

Earthquake Activity

City Distance Mag. Time & Date
Minimum magnitude displayed is 2.5.

Coastal Water Temperatures

Place Temperature

Stations

Nearby Weather Stations

Station Location Temp. Windchill Dew Point Humidity Wind Precip. Elev Updated Type
                   

Watches & Warnings

There are currently no watches in effect.